Time;durP1;ratioP1;P1;durP2;ratioP2;P2;SDS_P1;SDS_P2;PMS_P1;PMS_P2;Temp;Humidity;BMP_temperature;BMP_pressure;BME280_temperature;BME280_humidity;BME280_pressure;Samples;Min_cycle;Max_cycle;Signal;HPM_P1;HPM_P2
2021/12/03 00:00:21;;;;;;;6.75;3.85;;;2.20;99.90;;;;;;5071687;28;20432;-67
2021/12/03 00:02:47;;;;;;;5.30;3.60;;;2.20;99.90;;;;;;5072831;28;20102;-67
2021/12/03 00:05:12;;;;;;;6.85;3.63;;;2.20;99.90;;;;;;5071490;28;20041;-67
2021/12/03 00:07:41;;;;;;;5.55;3.83;;;2.20;99.90;;;;;;5064175;28;20505;-67
2021/12/03 00:10:08;;;;;;;8.02;4.50;;;2.20;99.90;;;;;;5071707;28;20042;-68
2021/12/03 00:12:34;;;;;;;9.85;4.13;;;2.20;99.90;;;;;;5071134;28;20122;-67
2021/12/03 00:14:59;;;;;;;7.03;4.65;;;2.10;99.90;;;;;;5072641;28;20040;-67
2021/12/03 00:17:25;;;;;;;9.65;5.05;;;2.10;99.90;;;;;;5072709;28;20395;-67
2021/12/03 00:19:50;;;;;;;6.50;3.95;;;2.20;99.90;;;;;;5072197;28;20405;-67
2021/12/03 00:22:16;;;;;;;16.35;4.38;;;2.10;99.90;;;;;;5070869;28;20100;-68
2021/12/03 00:24:42;;;;;;;7.90;3.65;;;2.20;99.90;;;;;;5072675;28;20434;-67
2021/12/03 00:27:07;;;;;;;7.10;4.35;;;2.20;99.90;;;;;;5072495;28;20040;-68
2021/12/03 00:29:33;;;;;;;5.00;4.22;;;2.10;99.90;;;;;;5072420;28;20485;-67
2021/12/03 00:31:58;;;;;;;8.05;4.13;;;2.10;99.90;;;;;;5070723;28;20045;-68
2021/12/03 00:34:26;;;;;;;6.50;3.80;;;2.20;99.90;;;;;;5072264;28;20742;-68
2021/12/03 00:36:53;;;;;;;8.65;4.43;;;2.10;99.90;;;;;;5071022;28;20096;-67
2021/12/03 00:39:18;;;;;;;9.63;4.80;;;2.10;99.90;;;;;;5070901;28;20041;-67
2021/12/03 00:41:52;;;;;;;5.57;4.38;;;2.10;99.90;;;;;;5071836;28;20347;-67
2021/12/03 00:44:19;;;;;;;6.50;3.67;;;2.10;99.90;;;;;;5070991;28;20051;-68
2021/12/03 00:46:45;;;;;;;11.70;4.05;;;2.10;99.90;;;;;;5071042;28;20476;-67
2021/12/03 00:49:11;;;;;;;8.25;3.88;;;2.10;99.90;;;;;;5071992;28;20075;-68
2021/12/03 00:51:36;;;;;;;8.35;3.88;;;2.10;99.90;;;;;;5072148;28;20101;-68
2021/12/03 00:54:02;;;;;;;6.35;4.15;;;2.20;99.90;;;;;;5070346;28;20044;-68
2021/12/03 00:56:28;;;;;;;8.63;4.57;;;2.10;99.90;;;;;;5070563;28;20070;-67
2021/12/03 00:58:53;;;;;;;5.53;4.40;;;2.10;99.90;;;;;;5071868;28;20052;-67
2021/12/03 01:01:19;;;;;;;8.65;4.38;;;2.10;99.90;;;;;;5070382;28;20090;-68
2021/12/03 01:03:45;;;;;;;5.03;4.13;;;2.10;99.90;;;;;;5070263;28;20050;-68
2021/12/03 01:06:11;;;;;;;6.80;5.13;;;2.00;99.90;;;;;;5071673;28;20437;-67
2021/12/03 01:08:37;;;;;;;9.70;4.30;;;2.00;99.90;;;;;;5071869;28;20047;-67
2021/12/03 01:11:04;;;;;;;6.90;4.38;;;2.00;99.90;;;;;;5070295;28;20095;-67
2021/12/03 01:13:30;;;;;;;9.95;4.95;;;2.00;99.90;;;;;;5071111;28;20076;-67
2021/12/03 01:15:56;;;;;;;7.97;4.82;;;2.00;99.90;;;;;;5071429;28;20076;-67
2021/12/03 01:18:21;;;;;;;12.73;4.53;;;2.00;99.90;;;;;;5070108;28;20044;-67
2021/12/03 01:20:47;;;;;;;9.00;5.50;;;2.00;99.90;;;;;;5071359;28;20456;-67
2021/12/03 01:23:14;;;;;;;9.27;4.97;;;2.00;99.90;;;;;;5071131;28;20036;-67
2021/12/03 01:25:40;;;;;;;8.95;5.60;;;2.00;99.90;;;;;;5071319;28;20554;-67
2021/12/03 01:28:08;;;;;;;12.50;5.40;;;2.00;99.90;;;;;;5071347;28;20037;-67
2021/12/03 01:30:35;;;;;;;10.93;5.88;;;2.00;99.90;;;;;;5071201;28;20120;-68
2021/12/03 01:33:02;;;;;;;12.65;5.50;;;1.90;99.90;;;;;;5070203;28;20401;-67
2021/12/03 01:35:29;;;;;;;6.82;5.18;;;1.90;99.90;;;;;;5071268;28;20036;-67
2021/12/03 01:37:55;;;;;;;10.38;5.93;;;1.90;99.90;;;;;;5071092;28;20045;-67
2021/12/03 01:40:24;;;;;;;12.20;7.13;;;1.80;99.90;;;;;;5071078;28;20064;-67
2021/12/03 01:42:50;;;;;;;8.80;6.90;;;1.80;99.90;;;;;;5070814;28;20063;-67
2021/12/03 01:45:19;;;;;;;11.73;6.93;;;1.90;99.90;;;;;;5070863;28;20108;-68
2021/12/03 01:47:46;;;;;;;12.90;6.72;;;2.00;99.90;;;;;;5071214;28;20101;-67
2021/12/03 01:50:13;;;;;;;10.40;6.70;;;2.00;99.90;;;;;;5071153;28;20048;-67
2021/12/03 01:52:39;;;;;;;11.13;7.40;;;1.90;99.90;;;;;;5069175;28;20170;-67
2021/12/03 01:55:11;;;;;;;10.93;7.55;;;1.90;99.90;;;;;;5070987;28;20075;-67
2021/12/03 01:57:37;;;;;;;14.88;8.35;;;1.90;99.90;;;;;;5069315;28;20067;-67
2021/12/03 02:00:10;;;;;;;10.32;7.45;;;2.00;99.90;;;;;;5069482;28;20531;-67
2021/12/03 02:02:36;;;;;;;11.75;7.60;;;2.00;99.90;;;;;;5069115;28;20045;-67
2021/12/03 02:05:02;;;;;;;12.77;7.90;;;1.80;99.90;;;;;;5070794;28;20047;-67
2021/12/03 02:07:28;;;;;;;11.70;8.20;;;1.90;99.90;;;;;;5070801;28;20392;-67
2021/12/03 02:09:54;;;;;;;9.45;7.85;;;1.90;99.90;;;;;;5069227;28;20123;-68
2021/12/03 02:12:20;;;;;;;14.27;8.73;;;1.90;99.90;;;;;;5068916;28;20123;-67
2021/12/03 02:14:46;;;;;;;13.57;7.70;;;1.90;99.90;;;;;;5069359;28;20430;-67
2021/12/03 02:17:11;;;;;;;15.45;8.63;;;1.90;99.90;;;;;;5070717;28;20048;-67
2021/12/03 02:19:38;;;;;;;12.65;8.77;;;1.90;99.90;;;;;;5070646;28;20641;-67
2021/12/03 02:22:04;;;;;;;11.55;8.70;;;1.90;99.90;;;;;;5070441;28;20079;-67
2021/12/03 02:24:30;;;;;;;15.88;10.13;;;2.00;99.90;;;;;;5070590;28;20108;-67
2021/12/03 02:26:55;;;;;;;14.75;8.57;;;1.90;99.90;;;;;;5069377;28;20115;-67
2021/12/03 02:29:21;;;;;;;16.20;8.25;;;1.80;99.90;;;;;;5069188;28;20045;-68
2021/12/03 02:31:47;;;;;;;17.38;9.68;;;2.00;99.90;;;;;;5068851;28;20105;-67
2021/12/03 02:34:12;;;;;;;15.18;9.80;;;2.00;99.90;;;;;;5070665;28;20040;-67
2021/12/03 02:36:38;;;;;;;14.75;9.10;;;1.90;99.90;;;;;;5070604;28;20404;-67
2021/12/03 02:39:04;;;;;;;16.55;10.20;;;1.80;99.90;;;;;;5070589;28;20051;-67
2021/12/03 02:41:30;;;;;;;14.90;9.32;;;1.80;99.90;;;;;;5070091;28;20127;-67
2021/12/03 02:43:56;;;;;;;13.60;9.85;;;1.90;99.90;;;;;;5073089;28;20079;-67
2021/12/03 02:46:21;;;;;;;15.35;9.77;;;2.00;99.90;;;;;;5073140;28;20468;-67
2021/12/03 02:48:47;;;;;;;13.32;9.43;;;1.90;99.90;;;;;;5074594;28;20516;-67
2021/12/03 02:51:13;;;;;;;10.88;8.45;;;2.00;99.90;;;;;;5074539;28;20400;-67
2021/12/03 02:53:38;;;;;;;15.43;9.70;;;1.90;99.90;;;;;;5072821;28;20048;-67
2021/12/03 02:56:06;;;;;;;18.27;9.82;;;1.80;99.90;;;;;;5074100;28;20040;-67
2021/12/03 02:58:32;;;;;;;13.80;9.93;;;1.90;99.90;;;;;;5074251;28;20052;-67
2021/12/03 03:00:58;;;;;;;16.55;10.07;;;1.90;99.90;;;;;;5072621;28;20098;-67
2021/12/03 03:03:24;;;;;;;11.68;9.45;;;1.90;99.90;;;;;;5072127;28;20508;-67
2021/12/03 03:05:59;;;;;;;17.92;9.32;;;2.00;99.90;;;;;;5074037;28;20330;-67
2021/12/03 03:08:26;;;;;;;13.00;9.25;;;2.00;99.90;;;;;;5072401;28;20045;-67
2021/12/03 03:10:54;;;;;;;15.30;9.13;;;2.00;99.90;;;;;;5073810;28;20051;-67
2021/12/03 03:13:19;;;;;;;11.73;8.85;;;2.00;99.90;;;;;;5072218;28;20044;-67
2021/12/03 03:15:46;;;;;;;13.48;10.38;;;1.90;99.90;;;;;;5073838;28;20085;-67
2021/12/03 03:18:18;;;;;;;13.70;8.75;;;1.90;99.90;;;;;;5072399;28;20075;-67
2021/12/03 03:20:46;;;;;;;17.25;9.00;;;1.90;99.90;;;;;;5073677;28;20049;-67
2021/12/03 03:23:12;;;;;;;13.75;9.52;;;2.00;99.90;;;;;;5072190;28;20068;-67
2021/12/03 03:25:40;;;;;;;12.05;8.65;;;1.90;99.90;;;;;;5073738;28;20045;-67
2021/12/03 03:28:06;;;;;;;15.50;10.23;;;1.80;99.90;;;;;;5073825;28;20068;-67
2021/12/03 03:30:33;;;;;;;12.63;8.48;;;1.80;99.90;;;;;;5072114;28;20060;-67
2021/12/03 03:33:00;;;;;;;14.98;8.55;;;1.80;99.90;;;;;;5072242;28;20086;-67
2021/12/03 03:35:25;;;;;;;14.95;8.55;;;1.80;99.90;;;;;;5071864;28;20076;-67
2021/12/03 03:37:51;;;;;;;11.40;8.68;;;1.80;99.90;;;;;;5072275;28;20493;-67
2021/12/03 03:40:17;;;;;;;11.93;9.05;;;1.90;99.90;;;;;;5073357;28;20037;-67
2021/12/03 03:42:43;;;;;;;11.25;8.50;;;1.80;99.90;;;;;;5072905;28;20047;-68
2021/12/03 03:45:13;;;;;;;14.85;8.88;;;1.80;99.90;;;;;;5073332;28;20082;-68
2021/12/03 03:47:39;;;;;;;17.33;9.43;;;1.90;99.90;;;;;;5073345;28;20037;-68
2021/12/03 03:50:06;;;;;;;11.43;8.52;;;1.90;99.90;;;;;;5071998;28;20048;-68
2021/12/03 03:52:33;;;;;;;12.52;8.32;;;1.90;99.90;;;;;;5072787;28;20090;-68
2021/12/03 03:54:59;;;;;;;11.25;7.75;;;1.80;99.90;;;;;;5070916;28;20488;-68
2021/12/03 03:57:25;;;;;;;10.40;9.07;;;1.80;99.90;;;;;;5071687;28;20090;-68
2021/12/03 03:59:51;;;;;;;12.43;9.07;;;1.70;99.90;;;;;;5071649;28;20400;-68
2021/12/03 04:02:17;;;;;;;11.55;9.02;;;1.70;99.90;;;;;;5072699;28;20036;-68
2021/12/03 04:04:42;;;;;;;10.35;8.52;;;1.70;99.90;;;;;;5071945;28;20162;-67
2021/12/03 04:07:08;;;;;;;10.93;8.00;;;1.70;99.90;;;;;;5072982;28;20033;-68
2021/12/03 04:09:34;;;;;;;12.98;8.98;;;1.80;99.90;;;;;;5071240;28;20040;-68
2021/12/03 04:11:59;;;;;;;8.98;8.07;;;1.80;99.90;;;;;;5071179;28;20503;-67
2021/12/03 04:14:25;;;;;;;10.82;8.98;;;1.80;99.90;;;;;;5072410;28;20033;-68
2021/12/03 04:16:51;;;;;;;11.85;9.82;;;1.80;99.90;;;;;;5071705;28;20207;-68
2021/12/03 04:19:18;;;;;;;11.25;8.95;;;1.70;99.90;;;;;;5072883;28;20515;-67
2021/12/03 04:21:44;;;;;;;13.05;8.73;;;1.70;99.90;;;;;;5072471;28;20051;-68
2021/12/03 04:24:10;;;;;;;10.25;8.70;;;1.80;99.90;;;;;;5071196;28;20068;-68
2021/12/03 04:26:35;;;;;;;10.90;9.15;;;1.70;99.90;;;;;;5072649;28;20172;-68
2021/12/03 04:29:01;;;;;;;12.27;9.77;;;1.70;99.90;;;;;;5072488;28;20519;-68
2021/12/03 04:31:28;;;;;;;11.45;7.85;;;1.70;99.90;;;;;;5071311;28;20345;-68
2021/12/03 04:33:54;;;;;;;14.25;9.68;;;1.70;99.90;;;;;;5072029;28;20489;-68
2021/12/03 04:36:20;;;;;;;11.98;9.57;;;1.70;99.90;;;;;;5072492;28;20040;-68
2021/12/03 04:38:45;;;;;;;15.35;9.20;;;1.70;99.90;;;;;;5070980;28;20040;-68
2021/12/03 04:41:11;;;;;;;15.27;10.15;;;1.70;99.90;;;;;;5072115;28;20056;-68
2021/12/03 04:43:37;;;;;;;15.45;9.65;;;1.70;99.90;;;;;;5070596;28;20047;-68
2021/12/03 04:46:02;;;;;;;10.70;9.55;;;1.80;99.90;;;;;;5071917;28;20033;-68
2021/12/03 04:48:28;;;;;;;14.68;9.35;;;1.80;99.90;;;;;;5072339;28;20074;-68
2021/12/03 04:50:54;;;;;;;13.32;8.60;;;1.70;99.90;;;;;;5070901;28;20430;-68
2021/12/03 04:53:20;;;;;;;15.77;9.30;;;1.70;99.90;;;;;;5070171;28;20041;-68
2021/12/03 04:55:47;;;;;;;16.42;10.13;;;1.60;99.90;;;;;;5071846;28;20047;-67
2021/12/03 04:58:13;;;;;;;12.88;9.38;;;1.70;99.90;;;;;;5070494;28;20059;-68
2021/12/03 05:00:48;;;;;;;15.32;10.57;;;1.70;99.90;;;;;;5070531;28;20067;-68
2021/12/03 05:03:13;;;;;;;17.38;9.48;;;1.70;99.90;;;;;;5071543;28;20090;-68
2021/12/03 05:05:46;;;;;;;13.35;9.88;;;1.70;99.90;;;;;;5069850;28;20086;-68
2021/12/03 05:08:12;;;;;;;13.35;9.45;;;1.70;99.90;;;;;;5071214;28;20532;-68
2021/12/03 05:10:42;;;;;;;12.05;9.75;;;1.60;99.90;;;;;;5070192;28;20049;-68
2021/12/03 05:13:22;;;;;;;17.45;10.65;;;1.60;99.90;;;;;;5071262;28;20548;-68
2021/12/03 05:15:49;;;;;;;14.43;10.35;;;1.50;99.90;;;;;;5071713;28;20037;-68
2021/12/03 05:18:18;;;;;;;13.82;9.95;;;1.50;99.90;;;;;;5070340;28;20400;-68
2021/12/03 05:20:45;;;;;;;13.63;10.00;;;1.60;99.90;;;;;;5071380;28;20062;-68
2021/12/03 05:23:11;;;;;;;14.55;10.05;;;1.60;99.90;;;;;;5069660;28;20151;-68
2021/12/03 05:25:38;;;;;;;17.15;10.80;;;1.70;99.90;;;;;;5070130;28;20115;-68
2021/12/03 05:28:04;;;;;;;15.10;10.32;;;1.60;99.90;;;;;;5071460;28;20054;-68
2021/12/03 05:30:30;;;;;;;14.63;10.40;;;1.70;99.90;;;;;;5070256;28;20136;-68
2021/12/03 05:32:57;;;;;;;17.73;12.10;;;1.70;99.90;;;;;;5071064;28;20132;-68
2021/12/03 05:35:23;;;;;;;19.45;11.02;;;1.70;99.90;;;;;;5071101;28;20453;-68
2021/12/03 05:37:50;;;;;;;18.45;11.85;;;1.70;99.90;;;;;;5069710;28;20680;-68
2021/12/03 05:40:17;;;;;;;15.50;11.15;;;1.70;99.90;;;;;;5071165;28;20040;-68
2021/12/03 05:42:45;;;;;;;20.02;11.38;;;1.70;99.90;;;;;;5069510;28;20456;-68
2021/12/03 05:45:14;;;;;;;18.10;10.70;;;1.80;99.90;;;;;;5071063;28;20043;-68
2021/12/03 05:47:40;;;;;;;18.92;11.23;;;1.70;99.90;;;;;;5070927;28;20056;-68
2021/12/03 05:50:08;;;;;;;14.43;10.73;;;1.80;99.90;;;;;;5069444;28;20045;-68
2021/12/03 05:52:35;;;;;;;14.60;10.77;;;1.70;99.90;;;;;;5070823;28;20043;-68
2021/12/03 05:55:00;;;;;;;13.80;10.95;;;1.70;99.90;;;;;;5069410;28;20044;-68
2021/12/03 05:57:26;;;;;;;17.05;11.50;;;1.70;99.90;;;;;;5070930;28;20397;-68
2021/12/03 05:59:52;;;;;;;18.52;11.70;;;1.70;99.90;;;;;;5069417;28;20389;-69
2021/12/03 06:02:17;;;;;;;25.25;11.68;;;1.70;99.90;;;;;;5070615;28;20443;-68
2021/12/03 06:04:43;;;;;;;15.13;10.93;;;1.70;99.90;;;;;;5069472;28;20578;-68
2021/12/03 06:07:08;;;;;;;16.55;12.05;;;1.70;99.90;;;;;;5069328;28;20554;-68
2021/12/03 06:09:34;;;;;;;15.75;11.25;;;1.80;99.90;;;;;;5069656;28;20040;-68
2021/12/03 06:12:01;;;;;;;17.92;11.05;;;1.70;99.90;;;;;;5069090;28;20060;-68
2021/12/03 06:14:28;;;;;;;22.90;10.55;;;1.80;99.90;;;;;;5069242;28;20119;-68
2021/12/03 06:16:55;;;;;;;19.90;10.80;;;1.80;99.90;;;;;;5070656;28;20044;-68
2021/12/03 06:19:20;;;;;;;19.42;10.52;;;1.90;99.90;;;;;;5070343;28;20508;-68
2021/12/03 06:21:46;;;;;;;16.75;10.23;;;1.90;99.90;;;;;;5070409;28;20033;-68
2021/12/03 06:24:12;;;;;;;22.17;12.13;;;1.80;99.90;;;;;;5069386;28;20036;-68
2021/12/03 06:26:37;;;;;;;13.93;10.27;;;1.90;99.90;;;;;;5070798;28;20072;-68
2021/12/03 06:29:03;;;;;;;21.88;11.40;;;1.90;99.90;;;;;;5069513;28;20040;-68
2021/12/03 06:31:29;;;;;;;18.50;11.38;;;1.80;99.90;;;;;;5069411;28;20109;-68
2021/12/03 06:33:55;;;;;;;14.18;9.68;;;1.70;99.90;;;;;;5070030;28;20044;-68
2021/12/03 06:36:20;;;;;;;15.05;10.15;;;2.00;99.90;;;;;;5070613;28;20092;-68
2021/12/03 06:38:46;;;;;;;21.67;11.80;;;1.80;99.90;;;;;;5068944;28;20381;-68
2021/12/03 06:41:11;;;;;;;17.05;11.95;;;2.00;99.90;;;;;;5069077;28;20144;-68
2021/12/03 06:43:37;;;;;;;15.80;10.77;;;2.00;99.90;;;;;;5068382;28;20041;-68
2021/12/03 06:46:03;;;;;;;17.58;10.57;;;1.90;99.90;;;;;;5070221;28;20044;-68
2021/12/03 06:48:29;;;;;;;20.73;11.43;;;2.00;99.90;;;;;;5070280;28;20093;-68
2021/12/03 06:50:54;;;;;;;17.48;10.20;;;2.00;99.90;;;;;;5070348;28;20040;-68
2021/12/03 06:53:23;;;;;;;21.70;12.80;;;2.00;99.90;;;;;;5070002;28;20508;-69
2021/12/03 06:55:59;;;;;;;18.58;11.60;;;2.10;99.90;;;;;;5069073;28;20051;-68
2021/12/03 06:58:24;;;;;;;22.10;12.52;;;2.10;99.90;;;;;;5070331;28;20121;-69
2021/12/03 07:00:54;;;;;;;20.48;11.90;;;2.10;99.90;;;;;;5070137;28;20543;-69
2021/12/03 07:03:20;;;;;;;19.77;12.13;;;2.20;99.90;;;;;;5069794;28;20032;-68
2021/12/03 07:05:46;;;;;;;18.35;11.88;;;2.10;99.90;;;;;;5068797;28;20038;-68
2021/12/03 07:08:12;;;;;;;22.83;12.90;;;2.20;99.90;;;;;;5070295;28;20093;-68
2021/12/03 07:10:38;;;;;;;20.60;11.95;;;2.10;99.90;;;;;;5068662;28;20052;-68
2021/12/03 07:13:03;;;;;;;21.77;12.55;;;2.10;99.90;;;;;;5068558;28;20119;-68
2021/12/03 07:15:29;;;;;;;22.67;13.88;;;2.10;99.90;;;;;;5069762;28;20500;-68
2021/12/03 07:17:55;;;;;;;26.23;13.82;;;2.10;99.90;;;;;;5070301;28;20040;-68
2021/12/03 07:20:23;;;;;;;21.20;12.57;;;2.10;99.90;;;;;;5068628;28;20750;-68
2021/12/03 07:22:50;;;;;;;24.08;13.40;;;2.20;99.90;;;;;;5068369;28;20041;-68
2021/12/03 07:25:17;;;;;;;22.83;12.70;;;2.20;99.90;;;;;;5069926;28;20041;-67
2021/12/03 07:27:42;;;;;;;24.45;13.45;;;2.10;99.90;;;;;;5070064;28;20043;-68
2021/12/03 07:30:13;;;;;;;24.55;14.80;;;2.20;99.90;;;;;;5071412;28;20040;-68
2021/12/03 07:32:39;;;;;;;24.08;14.38;;;2.20;99.90;;;;;;5072196;28;20048;-68
2021/12/03 07:35:06;;;;;;;25.45;15.32;;;2.20;99.90;;;;;;5073442;28;20082;-68
2021/12/03 07:37:32;;;;;;;28.90;14.45;;;2.30;99.90;;;;;;5073557;28;20067;-68
2021/12/03 07:40:04;;;;;;;26.25;15.23;;;2.20;99.90;;;;;;5072037;28;20144;-68
2021/12/03 07:42:31;;;;;;;22.75;14.60;;;2.20;99.90;;;;;;5071330;28;20041;-68
2021/12/03 07:44:57;;;;;;;31.02;15.55;;;2.20;99.90;;;;;;5068666;28;20036;-68
2021/12/03 07:47:23;;;;;;;26.60;14.75;;;2.20;99.90;;;;;;5070173;28;20040;-68
2021/12/03 07:49:50;;;;;;;27.88;15.40;;;2.20;99.90;;;;;;5072602;28;20079;-68
2021/12/03 07:52:18;;;;;;;29.05;15.90;;;2.10;99.90;;;;;;5071918;28;20131;-68
2021/12/03 07:54:44;;;;;;;27.45;15.32;;;2.30;99.90;;;;;;5073261;28;20037;-68
2021/12/03 07:57:10;;;;;;;26.05;16.08;;;2.30;99.90;;;;;;5072111;28;20043;-68
2021/12/03 07:59:35;;;;;;;28.15;16.23;;;2.40;99.90;;;;;;5054892;28;20072;-68
2021/12/03 08:02:01;;;;;;;30.40;16.98;;;2.40;99.90;;;;;;5072838;28;20542;-68
2021/12/03 08:04:27;;;;;;;28.02;16.58;;;2.30;99.90;;;;;;5073034;28;20396;-68
2021/12/03 08:06:54;;;;;;;30.45;18.10;;;2.40;99.90;;;;;;5072939;28;20036;-68
2021/12/03 08:09:21;;;;;;;31.90;17.20;;;2.40;99.90;;;;;;5072824;28;20184;-68
2021/12/03 08:11:46;;;;;;;30.15;16.75;;;2.40;99.90;;;;;;5071131;28;20052;-68
2021/12/03 08:14:12;;;;;;;30.55;17.77;;;2.40;99.90;;;;;;5072662;28;20032;-68
2021/12/03 08:16:39;;;;;;;37.88;18.08;;;2.40;99.90;;;;;;5072785;28;20082;-68
2021/12/03 08:19:05;;;;;;;36.00;18.95;;;2.40;99.90;;;;;;5061319;28;20115;-68
2021/12/03 08:21:31;;;;;;;35.75;19.90;;;2.40;99.90;;;;;;5071180;28;20127;-68
2021/12/03 08:23:57;;;;;;;37.55;19.77;;;2.50;99.90;;;;;;5072170;28;20407;-66
2021/12/03 08:26:23;;;;;;;40.72;20.90;;;2.40;99.90;;;;;;5071420;28;20071;-66
2021/12/03 08:28:48;;;;;;;40.33;21.55;;;2.50;99.90;;;;;;5072847;28;20082;-67
2021/12/03 08:31:15;;;;;;;46.50;22.98;;;2.50;99.90;;;;;;5072625;28;20044;-66
2021/12/03 08:33:41;;;;;;;48.05;22.73;;;2.50;99.90;;;;;;5072342;28;20142;-68
2021/12/03 08:36:07;;;;;;;42.83;21.83;;;2.50;99.90;;;;;;5072569;28;20063;-67
2021/12/03 08:38:33;;;;;;;48.58;23.60;;;2.60;99.90;;;;;;5071470;28;20052;-67
2021/12/03 08:40:59;;;;;;;45.08;23.08;;;2.60;99.90;;;;;;5070821;28;20051;-67
2021/12/03 08:43:24;;;;;;;50.15;22.90;;;2.70;99.90;;;;;;5072260;28;20036;-68
2021/12/03 08:45:54;;;;;;;46.65;22.17;;;2.60;99.90;;;;;;5072577;28;20048;-67
2021/12/03 08:48:23;;;;;;;49.53;22.38;;;2.70;99.90;;;;;;5071127;28;20060;-68
2021/12/03 08:51:05;;;;;;;45.22;22.33;;;2.80;99.90;;;;;;5072294;28;20048;-67
2021/12/03 08:56:15;;;;;;;50.38;23.40;;;2.80;99.90;;;;;;5070760;28;20044;-67
2021/12/03 08:58:40;;;;;;;61.17;25.27;;;2.80;99.90;;;;;;5070981;28;20051;-68
2021/12/03 09:01:08;;;;;;;56.03;23.38;;;2.80;99.90;;;;;;5053876;28;20098;-67
2021/12/03 09:03:34;;;;;;;58.58;25.40;;;2.80;99.90;;;;;;5070457;28;20481;-68
2021/12/03 09:06:00;;;;;;;51.10;23.02;;;2.90;99.90;;;;;;5071706;28;20038;-67
2021/12/03 09:08:25;;;;;;;52.60;22.58;;;2.90;99.90;;;;;;5070688;28;20051;-68
2021/12/03 09:10:51;;;;;;;54.28;23.20;;;2.90;99.90;;;;;;5071838;28;20045;-68
2021/12/03 09:13:16;;;;;;;65.30;25.17;;;2.90;99.90;;;;;;5071475;28;20044;-68
2021/12/03 09:15:52;;;;;;;57.33;24.27;;;2.90;99.90;;;;;;5070391;28;20430;-68
2021/12/03 09:18:27;;;;;;;51.67;24.00;;;3.00;99.90;;;;;;5071768;28;20051;-68
2021/12/03 09:26:09;;;;;;;52.47;23.13;;;3.10;99.90;;;;;;5071696;28;20047;-67
2021/12/03 09:28:37;;;;;;;56.85;24.80;;;3.10;99.90;;;;;;5070312;28;20083;-68
2021/12/03 09:31:04;;;;;;;55.03;21.92;;;3.10;99.90;;;;;;5070132;28;20078;-68
2021/12/03 09:33:31;;;;;;;59.28;22.10;;;3.10;99.90;;;;;;5069887;28;20048;-68
2021/12/03 09:36:01;;;;;;;49.63;22.40;;;3.10;99.90;;;;;;5071714;28;20055;-68
2021/12/03 09:38:31;;;;;;;48.35;21.65;;;3.10;99.90;;;;;;5071350;28;20040;-68
2021/12/03 09:41:04;;;;;;;55.13;20.95;;;3.10;99.90;;;;;;5069973;28;20045;-67
2021/12/03 09:43:30;;;;;;;52.35;20.92;;;3.20;99.90;;;;;;5069916;28;20074;-68
2021/12/03 09:46:04;;;;;;;53.65;22.23;;;3.10;99.90;;;;;;5070155;28;20052;-68
2021/12/03 09:51:25;;;;;;;55.60;21.05;;;3.20;99.90;;;;;;5062490;28;20044;-67
2021/12/03 09:56:19;;;;;;;50.60;20.05;;;3.20;99.90;;;;;;5071128;28;20147;-68
2021/12/03 10:01:36;;;;;;;49.53;19.27;;;3.30;99.90;;;;;;5071070;28;20087;-68
2021/12/03 10:12:31;;;;;;;40.58;18.20;;;3.30;99.90;;;;;;5070886;28;20045;-68
2021/12/03 10:15:09;;;;;;;44.45;18.15;;;3.40;99.90;;;;;;5069753;28;20040;-67
2021/12/03 10:17:47;;;;;;;38.65;16.65;;;3.40;99.90;;;;;;5070939;28;20488;-68
2021/12/03 10:20:24;;;;;;;42.22;17.33;;;3.40;99.90;;;;;;5071065;28;20068;-68
2021/12/03 10:46:51;;;;;;;31.25;10.95;;;3.70;99.90;;;;;;5040099;28;20099;-75
2021/12/03 11:00:31;;;;;;;24.60;9.18;;;3.70;99.90;;;;;;5049169;28;20045;-75
2021/12/03 11:08:29;;;;;;;19.33;7.20;;;3.90;99.90;;;;;;5053392;28;20045;-75
2021/12/03 11:28:11;;;;;;;10.57;4.88;;;3.90;99.90;;;;;;5054124;28;20045;-75
2021/12/03 11:47:35;;;;;;;17.50;6.27;;;3.80;99.90;;;;;;5054161;28;20045;-72
2021/12/03 12:35:25;;;;;;;12.68;5.15;;;3.40;99.90;;;;;;5050958;28;20067;-71
2021/12/03 12:44:19;;;;;;;17.38;6.05;;;3.40;99.90;;;;;;5058412;28;20044;-72
2021/12/03 13:08:58;;;;;;;14.68;5.47;;;3.60;99.90;;;;;;5059733;28;20044;-70
2021/12/03 14:11:21;;;;;;;12.13;6.07;;;4.00;99.90;;;;;;5050409;28;20072;-69
2021/12/03 14:20:24;;;;;;;9.13;5.47;;;4.00;99.90;;;;;;5011301;28;20092;-69
2021/12/03 14:26:30;;;;;;;11.18;5.75;;;4.00;99.90;;;;;;5049069;28;20102;-69
2021/12/03 14:36:26;;;;;;;15.52;6.90;;;4.10;99.90;;;;;;5026398;28;20504;-71
2021/12/03 14:41:33;;;;;;;19.77;5.70;;;4.10;99.90;;;;;;5054215;28;20067;-70
2021/12/03 14:44:21;;;;;;;18.88;5.63;;;4.10;99.90;;;;;;5052979;28;20048;-70
2021/12/03 14:52:17;;;;;;;12.35;5.60;;;4.20;99.90;;;;;;5050975;28;20430;-71
2021/12/03 14:57:32;;;;;;;13.15;5.38;;;4.30;99.90;;;;;;5070351;28;20059;-70
2021/12/03 15:00:09;;;;;;;15.00;5.22;;;4.30;99.90;;;;;;5072002;28;20052;-70
2021/12/03 15:02:57;;;;;;;11.10;5.90;;;4.30;99.90;;;;;;5073595;28;20041;-73
2021/12/03 15:08:10;;;;;;;10.45;5.03;;;4.30;99.90;;;;;;5072576;28;20045;-69
2021/12/03 15:10:50;;;;;;;8.93;5.20;;;4.40;99.90;;;;;;5072698;28;20048;-69
2021/12/03 15:13:32;;;;;;;11.95;5.35;;;4.40;99.90;;;;;;5071719;28;20089;-69
2021/12/03 15:17:03;;;;;;;8.60;4.57;;;4.40;99.90;;;;;;5072547;28;20048;-71
2021/12/03 15:24:34;;;;;;;8.18;4.40;;;4.50;99.90;;;;;;5073652;28;20040;-71
2021/12/03 15:27:06;;;;;;;12.38;4.82;;;4.50;99.90;;;;;;5073958;28;20076;-70
2021/12/03 16:08:41;;;;;;;10.23;5.72;;;4.60;99.90;;;;;;5053340;28;20091;-70
2021/12/03 16:25:10;;;;;;;12.13;6.22;;;4.50;99.90;;;;;;5055619;28;20052;-70
2021/12/03 16:31:05;;;;;;;9.93;5.93;;;4.40;99.90;;;;;;5072282;28;20105;-69
2021/12/03 16:47:00;;;;;;;8.63;6.13;;;4.60;99.90;;;;;;5071026;28;20048;-70
2021/12/03 16:52:12;;;;;;;8.10;6.03;;;4.60;99.90;;;;;;5070314;28;20652;-71
2021/12/03 16:54:46;;;;;;;6.70;5.50;;;4.50;99.90;;;;;;5072047;28;20045;-72
2021/12/03 16:57:13;;;;;;;7.22;6.00;;;4.50;99.90;;;;;;5070542;28;20041;-72
2021/12/03 16:59:42;;;;;;;8.07;6.38;;;4.50;99.90;;;;;;5070812;28;20051;-72
2021/12/03 17:02:14;;;;;;;10.55;6.82;;;4.50;99.90;;;;;;5071617;28;20154;-71
2021/12/03 17:05:02;;;;;;;7.47;5.75;;;4.50;99.90;;;;;;5071062;28;20041;-72
2021/12/03 17:31:19;;;;;;;9.52;7.35;;;4.60;99.90;;;;;;5059835;28;20049;-72
2021/12/03 17:47:31;;;;;;;12.07;7.95;;;4.60;99.90;;;;;;5069357;28;20055;-71
2021/12/03 17:58:30;;;;;;;9.65;8.43;;;4.60;99.90;;;;;;5061010;28;20041;-72
2021/12/03 18:01:01;;;;;;;14.10;10.03;;;4.60;99.90;;;;;;5056541;28;20051;-72
2021/12/03 18:56:41;;;;;;;18.23;11.23;;;4.70;99.90;;;;;;5056909;28;20037;-72
2021/12/03 18:59:07;;;;;;;15.85;11.23;;;4.70;99.90;;;;;;5056357;28;20055;-72
2021/12/03 19:01:34;;;;;;;16.80;11.25;;;4.70;99.90;;;;;;5060668;28;20613;-71
2021/12/03 19:09:11;;;;;;;18.45;11.88;;;4.70;99.90;;;;;;5069471;28;20044;-71
2021/12/03 19:11:41;;;;;;;15.93;12.27;;;4.80;99.90;;;;;;5069061;28;20052;-71
2021/12/03 19:14:07;;;;;;;16.10;11.63;;;4.70;99.90;;;;;;5051163;28;20032;-71
2021/12/03 19:16:34;;;;;;;16.63;12.07;;;4.70;99.90;;;;;;5060864;28;20127;-72
2021/12/03 19:19:00;;;;;;;16.27;11.57;;;4.80;99.90;;;;;;5070879;28;20048;-71
2021/12/03 19:21:28;;;;;;;19.25;12.00;;;4.80;99.90;;;;;;5070576;28;20032;-72
2021/12/03 19:23:59;;;;;;;19.48;12.45;;;4.80;99.90;;;;;;5070391;28;20039;-71
2021/12/03 19:26:26;;;;;;;16.85;12.35;;;4.80;99.90;;;;;;5072100;28;20040;-72
2021/12/03 19:28:54;;;;;;;20.52;12.25;;;4.80;99.90;;;;;;5074352;28;20068;-71
2021/12/03 19:31:21;;;;;;;18.60;12.52;;;4.80;99.90;;;;;;5074206;28;20032;-72
2021/12/03 19:33:47;;;;;;;16.20;12.65;;;4.80;99.90;;;;;;5073995;28;20044;-71
2021/12/03 19:36:20;;;;;;;15.60;11.77;;;4.80;99.90;;;;;;5073140;28;20056;-71
2021/12/03 19:38:47;;;;;;;15.48;12.27;;;4.80;99.90;;;;;;5074866;28;20066;-72
2021/12/03 19:41:28;;;;;;;16.98;13.07;;;4.80;99.90;;;;;;5074413;28;20045;-71
2021/12/03 19:43:56;;;;;;;19.42;13.02;;;4.90;99.90;;;;;;5073884;28;20040;-71
2021/12/03 19:47:06;;;;;;;18.67;13.25;;;4.90;99.90;;;;;;5072500;28;20129;-71
2021/12/03 19:51:48;;;;;;;18.38;12.45;;;4.80;99.90;;;;;;5067982;28;20060;-72
2021/12/03 19:54:15;;;;;;;15.80;12.35;;;4.80;99.90;;;;;;5065325;28;20067;-71
2021/12/03 19:56:40;;;;;;;18.92;13.02;;;4.80;99.90;;;;;;5073719;28;20127;-72
2021/12/03 19:59:07;;;;;;;18.52;12.13;;;4.90;99.90;;;;;;5072693;28;20111;-72
2021/12/03 20:01:34;;;;;;;19.98;13.25;;;4.90;99.90;;;;;;5072400;28;20051;-72
2021/12/03 20:04:02;;;;;;;20.23;13.15;;;4.90;99.90;;;;;;5065180;28;20053;-72
2021/12/03 20:06:28;;;;;;;17.73;12.30;;;4.90;99.90;;;;;;5067723;28;20380;-70
2021/12/03 20:08:57;;;;;;;18.17;12.20;;;4.90;99.90;;;;;;5073428;28;20028;-70
2021/12/03 20:11:27;;;;;;;16.92;11.63;;;4.80;99.90;;;;;;5072052;28;20094;-70
2021/12/03 20:13:59;;;;;;;18.38;12.88;;;4.80;99.90;;;;;;5054888;28;20040;-70